Airport View

Enter AWOS ICAO identifier for current METAR.

ex. KFNL

KS71 250200Z AUTO 23003KT 3/4SM 18/04 A3000

25 May 2020 02:05

Frequency: 118.35

Phone: 406-357-3453

Other Area AWOS: KHVR - CWEH - KM75 - CWOE

TAF KHVR 242335Z 2500/2524 VRB06KT P6SM SCT060 BKN090 FM250400 VRB06KT P6SM FEW070 FEW080 FM251600 23010G18KT P6SM FEW090 SCT200 FM252300 24011KT P6SM FEW120 BKN200